createdAt,value
2023-03-26T00:00:20.290Z,0.06
2023-03-26T00:01:19.542Z,0.00
2023-03-26T00:02:19.846Z,0.00
2023-03-26T00:03:19.570Z,0.00
2023-03-26T00:05:19.648Z,0.02
2023-03-26T00:06:18.868Z,0.00
2023-03-26T00:07:19.133Z,0.02
2023-03-26T00:08:19.438Z,0.00
2023-03-26T00:09:19.749Z,0.00
2023-03-26T00:10:20.002Z,0.00
2023-03-26T00:11:19.240Z,0.00
2023-03-26T00:12:19.535Z,0.00
2023-03-26T00:13:19.803Z,0.00
2023-03-26T00:14:19.064Z,0.00
2023-03-26T00:15:19.365Z,0.02
2023-03-26T00:16:19.708Z,0.00
2023-03-26T00:17:18.870Z,0.00
2023-03-26T00:18:19.163Z,0.02
2023-03-26T00:19:19.390Z,0.00
2023-03-26T00:20:18.649Z,0.00
2023-03-26T00:21:18.964Z,0.00
2023-03-26T00:22:19.224Z,0.00
2023-03-26T00:23:19.515Z,0.00
2023-03-26T00:24:18.758Z,0.00
2023-03-26T00:25:19.019Z,0.00
2023-03-26T00:26:19.305Z,0.00
2023-03-26T00:27:19.570Z,0.00
2023-03-26T00:28:18.764Z,0.00
2023-03-26T00:29:19.051Z,0.00
2023-03-26T00:30:19.310Z,0.01
2023-03-26T00:31:19.632Z,0.02
2023-03-26T00:32:18.817Z,0.00
2023-03-26T00:33:19.088Z,0.01
2023-03-26T00:34:19.383Z,0.00
2023-03-26T00:35:19.640Z,0.02
2023-03-26T00:36:18.884Z,0.00
2023-03-26T00:37:19.187Z,0.00
2023-03-26T00:38:19.393Z,0.02
2023-03-26T00:39:18.604Z,0.02
2023-03-26T00:40:18.893Z,0.00
2023-03-26T00:41:19.138Z,0.02
2023-03-26T00:42:19.449Z,0.01
2023-03-26T00:43:18.649Z,0.02
2023-03-26T00:44:18.905Z,0.02
2023-03-26T00:45:19.190Z,0.02
2023-03-26T00:46:19.511Z,0.02
2023-03-26T00:47:18.688Z,0.00
2023-03-26T00:48:18.979Z,0.00
2023-03-26T00:49:19.237Z,0.02
2023-03-26T00:50:18.425Z,0.02
2023-03-26T00:51:19.719Z,0.00
2023-03-26T00:52:18.941Z,0.02
2023-03-26T00:53:19.259Z,0.00
2023-03-26T00:54:19.481Z,0.02
2023-03-26T00:55:19.754Z,0.02
2023-03-26T00:56:19.013Z,0.00
2023-03-26T00:57:29.206Z,0.00
2023-03-26T00:58:19.602Z,0.00
2023-03-26T00:59:19.711Z,0.00
2023-03-26T01:00:19.037Z,0.00
2023-03-26T01:01:18.361Z,0.00
2023-03-26T01:02:18.558Z,0.02
2023-03-26T01:03:27.636Z,0.00
2023-03-26T01:04:20.269Z,0.02
2023-03-26T01:05:18.377Z,0.00
2023-03-26T01:06:18.595Z,0.00
2023-03-26T01:07:18.866Z,0.00
2023-03-26T01:08:18.107Z,0.02
2023-03-26T01:09:18.350Z,0.00
2023-03-26T01:10:18.665Z,0.00
2023-03-26T01:11:18.949Z,0.00
2023-03-26T01:12:18.198Z,0.00
2023-03-26T01:13:18.480Z,0.00
2023-03-26T01:14:18.091Z,0.00
2023-03-26T01:15:18.331Z,0.00
2023-03-26T01:16:18.686Z,0.02
2023-03-26T01:17:18.893Z,0.00
2023-03-26T01:18:18.115Z,0.00
2023-03-26T01:19:18.375Z,0.00
2023-03-26T01:20:18.643Z,0.00
2023-03-26T01:21:18.888Z,0.00
2023-03-26T01:22:19.140Z,0.02
2023-03-26T01:23:18.354Z,0.00
2023-03-26T01:24:18.607Z,0.02
2023-03-26T01:25:18.901Z,0.00
2023-03-26T01:26:18.108Z,0.00
2023-03-26T01:27:18.450Z,0.00
2023-03-26T01:28:18.678Z,0.00
2023-03-26T01:29:17.882Z,0.00
2023-03-26T01:30:19.214Z,0.00
2023-03-26T01:31:18.437Z,0.01
2023-03-26T01:32:18.743Z,0.00
2023-03-26T01:33:19.039Z,0.02
2023-03-26T01:34:18.183Z,0.00
2023-03-26T01:35:19.540Z,0.00
2023-03-26T01:36:18.733Z,0.02
2023-03-26T01:37:17.962Z,0.02
2023-03-26T01:38:18.244Z,0.00
2023-03-26T01:39:18.506Z,0.02
2023-03-26T01:40:17.761Z,0.00
2023-03-26T01:41:18.020Z,0.02
2023-03-26T01:42:18.622Z,0.00
2023-03-26T01:43:18.697Z,0.00
2023-03-26T01:44:18.838Z,0.02
2023-03-26T01:45:18.061Z,0.01
2023-03-26T01:46:18.346Z,0.00
2023-03-26T01:47:19.634Z,0.00
2023-03-26T01:48:17.842Z,0.02
2023-03-26T01:49:18.148Z,0.00
2023-03-26T01:50:18.378Z,0.00
2023-03-26T01:51:17.636Z,0.02
2023-03-26T01:52:17.892Z,0.02
2023-03-26T01:53:18.173Z,0.02
2023-03-26T01:54:17.438Z,0.00
2023-03-26T01:55:17.735Z,0.01
2023-03-26T01:56:18.005Z,0.00
2023-03-26T01:57:18.259Z,0.02
2023-03-26T01:58:17.534Z,0.02
2023-03-26T01:59:18.752Z,0.00
2023-03-26T02:00:18.123Z,0.00
2023-03-26T02:01:17.352Z,0.00
2023-03-26T02:02:18.728Z,0.01
2023-03-26T02:03:18.419Z,0.00
2023-03-26T02:04:18.218Z,0.02
2023-03-26T02:05:18.740Z,0.01
2023-03-26T02:06:17.761Z,0.00
2023-03-26T02:07:18.071Z,0.00
2023-03-26T02:08:18.362Z,0.00
2023-03-26T02:09:17.598Z,0.02
2023-03-26T02:10:17.911Z,0.00
2023-03-26T02:11:19.972Z,0.02
2023-03-26T02:12:17.455Z,0.02
2023-03-26T02:13:17.746Z,0.01
2023-03-26T02:14:18.060Z,0.00
2023-03-26T02:15:17.291Z,0.02
2023-03-26T02:16:18.580Z,0.00
2023-03-26T02:17:17.920Z,0.00
2023-03-26T02:18:17.140Z,0.00
2023-03-26T02:19:18.391Z,0.02
2023-03-26T02:20:17.722Z,0.01
2023-03-26T02:21:18.018Z,0.02
2023-03-26T02:22:17.291Z,0.00
2023-03-26T02:23:17.641Z,0.02
2023-03-26T02:24:17.914Z,0.02
2023-03-26T02:25:17.155Z,0.00
2023-03-26T02:26:18.451Z,0.00
2023-03-26T02:27:17.769Z,0.02
2023-03-26T02:28:17.023Z,0.00
2023-03-26T02:29:17.335Z,0.05
2023-03-26T02:30:18.525Z,0.02
2023-03-26T02:31:17.880Z,0.00
2023-03-26T02:32:17.134Z,0.00
2023-03-26T02:33:17.400Z,0.02
2023-03-26T02:34:17.714Z,0.00
2023-03-26T02:35:17.803Z,0.02
2023-03-26T02:36:17.362Z,0.00
2023-03-26T02:37:18.509Z,0.00
2023-03-26T02:38:17.849Z,0.00
2023-03-26T02:39:17.129Z,0.00
2023-03-26T02:40:17.588Z,0.00
2023-03-26T02:41:18.629Z,0.01
2023-03-26T02:42:16.939Z,0.02
2023-03-26T02:43:17.203Z,0.00
2023-03-26T02:44:18.468Z,0.02
2023-03-26T02:45:16.757Z,0.02
2023-03-26T02:46:17.447Z,0.02
2023-03-26T02:47:17.364Z,0.02
2023-03-26T02:48:18.642Z,0.02
2023-03-26T02:49:16.880Z,0.00
2023-03-26T02:51:17.591Z,0.00
2023-03-26T02:52:16.656Z,0.02
2023-03-26T02:53:37.916Z,0.00
2023-03-26T02:54:17.168Z,0.02
2023-03-26T02:55:17.456Z,0.02
2023-03-26T02:56:16.685Z,0.02
2023-03-26T02:57:17.378Z,0.02
2023-03-26T02:58:17.213Z,0.02
2023-03-26T02:59:17.485Z,0.00
2023-03-26T03:00:16.737Z,0.00
2023-03-26T03:01:17.031Z,0.00
2023-03-26T03:02:17.315Z,0.00
2023-03-26T03:03:16.690Z,0.01
2023-03-26T03:04:17.737Z,0.00
2023-03-26T03:05:17.065Z,0.00
2023-03-26T03:06:17.368Z,0.02
2023-03-26T03:07:16.611Z,0.00
2023-03-26T03:08:17.589Z,0.02
2023-03-26T03:09:18.126Z,0.00
2023-03-26T03:10:16.409Z,0.00
2023-03-26T03:11:17.646Z,0.00
2023-03-26T03:12:16.957Z,0.00
2023-03-26T03:13:17.242Z,0.00
2023-03-26T03:14:16.527Z,0.01
2023-03-26T03:15:16.791Z,0.02
2023-03-26T03:16:17.094Z,0.02
2023-03-26T03:17:16.321Z,0.00
2023-03-26T03:18:17.559Z,0.02
2023-03-26T03:19:16.935Z,0.00
2023-03-26T03:20:17.203Z,0.02
2023-03-26T03:21:17.383Z,0.02
2023-03-26T03:22:17.696Z,0.00
2023-03-26T03:23:17.034Z,0.00
2023-03-26T03:24:17.245Z,0.02
2023-03-26T03:25:16.598Z,0.02
2023-03-26T03:26:16.848Z,0.02
2023-03-26T03:27:17.137Z,0.02
2023-03-26T03:28:17.334Z,0.02
2023-03-26T03:29:16.721Z,0.00
2023-03-26T03:30:16.920Z,0.02
2023-03-26T03:31:16.232Z,0.02
2023-03-26T03:32:16.454Z,0.02
2023-03-26T03:33:16.717Z,0.00
2023-03-26T03:34:17.991Z,0.02
2023-03-26T03:35:16.273Z,0.02
2023-03-26T03:36:20.674Z,0.02
2023-03-26T03:37:17.829Z,0.02
2023-03-26T03:38:17.033Z,0.00
2023-03-26T03:39:16.374Z,0.01
2023-03-26T03:40:16.656Z,0.06
2023-03-26T03:41:16.963Z,0.01
2023-03-26T03:42:16.287Z,0.06
2023-03-26T03:43:16.457Z,0.02
2023-03-26T03:44:16.764Z,0.00
2023-03-26T03:45:15.972Z,0.00
2023-03-26T03:46:16.303Z,0.00
2023-03-26T03:47:17.114Z,0.02
2023-03-26T03:48:17.879Z,0.02
2023-03-26T03:49:16.106Z,0.00
2023-03-26T03:50:16.450Z,0.05
2023-03-26T03:51:16.664Z,0.02
2023-03-26T03:52:16.879Z,0.00
2023-03-26T03:53:16.378Z,0.00
2023-03-26T03:54:16.488Z,0.02
2023-03-26T03:55:16.761Z,0.02
2023-03-26T03:56:16.006Z,0.00
2023-03-26T03:57:16.281Z,0.02
2023-03-26T03:58:17.056Z,0.00
2023-03-26T03:59:15.788Z,0.02
2023-03-26T04:00:16.028Z,0.02
2023-03-26T04:01:16.311Z,0.02
2023-03-26T04:02:16.607Z,0.02
2023-03-26T04:03:17.005Z,0.01
2023-03-26T04:04:16.158Z,0.02
2023-03-26T04:05:16.366Z,0.00
2023-03-26T04:06:16.609Z,0.06
2023-03-26T04:07:16.810Z,0.02
2023-03-26T04:08:17.126Z,0.00
2023-03-26T04:09:16.456Z,0.02
2023-03-26T04:10:16.664Z,0.00
2023-03-26T04:11:15.962Z,0.00
2023-03-26T04:12:16.247Z,0.02
2023-03-26T04:13:16.524Z,0.00
2023-03-26T04:14:15.746Z,0.00
2023-03-26T04:15:16.542Z,0.00
2023-03-26T04:16:16.346Z,0.00
2023-03-26T04:17:15.587Z,0.06
2023-03-26T04:18:16.778Z,0.00
2023-03-26T04:19:16.119Z,0.02
2023-03-26T04:20:16.419Z,0.02
2023-03-26T04:21:15.686Z,0.02
2023-03-26T04:22:16.909Z,0.02
2023-03-26T04:23:16.269Z,0.00
2023-03-26T04:24:16.443Z,0.00
2023-03-26T04:25:15.764Z,0.01
2023-03-26T04:26:16.081Z,0.00
2023-03-26T04:27:16.386Z,0.02
2023-03-26T04:28:15.597Z,0.02
2023-03-26T04:29:15.896Z,0.00
2023-03-26T04:30:16.160Z,0.02
2023-03-26T04:31:15.451Z,0.02
2023-03-26T04:32:15.728Z,0.02
2023-03-26T04:33:16.057Z,0.02
2023-03-26T04:34:15.321Z,0.01
2023-03-26T04:35:16.609Z,0.02
2023-03-26T04:36:15.891Z,0.00
2023-03-26T04:37:16.198Z,0.02
2023-03-26T04:38:16.405Z,0.02
2023-03-26T04:39:16.668Z,0.01
2023-03-26T04:40:16.986Z,0.00
2023-03-26T04:41:15.308Z,0.01
2023-03-26T04:42:15.656Z,0.01
2023-03-26T04:43:15.856Z,0.01
2023-03-26T04:44:16.140Z,0.05
2023-03-26T04:45:15.425Z,0.01
2023-03-26T04:46:16.663Z,0.01
2023-03-26T04:47:16.002Z,0.02
2023-03-26T04:48:15.298Z,0.02
2023-03-26T04:49:15.606Z,0.02
2023-03-26T04:50:16.844Z,0.02
2023-03-26T04:51:15.176Z,0.04
2023-03-26T04:52:15.482Z,0.05
2023-03-26T04:53:15.835Z,0.18
2023-03-26T04:54:15.069Z,0.08
2023-03-26T04:55:15.345Z,0.09
2023-03-26T04:56:15.673Z,0.11
2023-03-26T04:57:16.027Z,0.13
2023-03-26T04:58:15.240Z,0.17
2023-03-26T04:59:15.605Z,0.22
2023-03-26T05:00:15.851Z,0.22
2023-03-26T05:01:15.199Z,0.28
2023-03-26T05:02:15.371Z,0.30
2023-03-26T05:03:35.460Z,0.36
2023-03-26T05:04:15.934Z,0.39
2023-03-26T05:05:15.282Z,0.44
2023-03-26T05:06:15.511Z,0.51
2023-03-26T05:07:15.712Z,0.58
2023-03-26T05:08:16.037Z,0.64
2023-03-26T05:09:15.263Z,0.69
2023-03-26T05:10:15.593Z,0.74
2023-03-26T05:11:15.748Z,0.80
2023-03-26T05:12:16.043Z,0.83
2023-03-26T05:13:16.338Z,0.89
2023-03-26T05:14:16.628Z,0.94
2023-03-26T05:15:15.981Z,0.99
2023-03-26T05:16:15.240Z,1.07
2023-03-26T05:17:15.498Z,1.17
2023-03-26T05:18:15.724Z,1.51
2023-03-26T05:19:16.009Z,1.73
2023-03-26T05:20:16.322Z,2.02
2023-03-26T05:21:15.695Z,2.40
2023-03-26T05:22:14.891Z,2.82
2023-03-26T05:23:15.187Z,2.52
2023-03-26T05:24:16.464Z,2.61
2023-03-26T05:25:15.708Z,2.72
2023-03-26T05:26:15.022Z,2.45
2023-03-26T05:27:15.377Z,2.61
2023-03-26T05:28:14.603Z,2.77
2023-03-26T05:29:14.859Z,2.94
2023-03-26T05:30:15.192Z,3.10
2023-03-26T05:31:16.434Z,3.27
2023-03-26T05:32:14.735Z,3.50
2023-03-26T05:33:15.155Z,3.72
2023-03-26T05:34:16.283Z,3.97
2023-03-26T05:35:15.527Z,4.23
2023-03-26T05:36:14.878Z,4.54
2023-03-26T05:37:15.149Z,4.82
2023-03-26T05:38:15.518Z,4.99
2023-03-26T05:39:14.723Z,5.06
2023-03-26T05:40:15.020Z,5.11
2023-03-26T05:41:16.294Z,5.21
2023-03-26T05:42:15.517Z,5.47
2023-03-26T05:43:15.826Z,6.00
2023-03-26T05:44:15.300Z,6.83
2023-03-26T05:45:15.413Z,7.74
2023-03-26T05:46:15.797Z,8.81
2023-03-26T05:47:15.979Z,9.95
2023-03-26T05:48:16.294Z,11.15
2023-03-26T05:49:14.588Z,12.44
2023-03-26T05:50:14.938Z,13.67
2023-03-26T05:51:16.196Z,14.96
2023-03-26T05:52:15.435Z,16.21
2023-03-26T05:53:15.746Z,17.48
2023-03-26T05:54:15.075Z,18.57
2023-03-26T05:55:17.552Z,19.60
2023-03-26T05:56:14.632Z,20.49
2023-03-26T05:57:15.006Z,21.28
2023-03-26T05:58:15.227Z,22.03
2023-03-26T05:59:14.503Z,22.72
2023-03-26T06:00:15.751Z,23.22
2023-03-26T06:01:17.251Z,23.55
2023-03-26T06:02:14.373Z,23.81
2023-03-26T06:03:14.809Z,24.25
2023-03-26T06:04:15.021Z,24.71
2023-03-26T06:05:14.208Z,25.00
2023-03-26T06:06:14.484Z,25.06
2023-03-26T06:07:14.844Z,24.90
2023-03-26T06:08:15.065Z,24.67
2023-03-26T06:09:14.368Z,24.54
2023-03-26T06:10:18.161Z,24.38
2023-03-26T06:11:15.934Z,24.19
2023-03-26T06:12:14.238Z,23.77
2023-03-26T06:13:14.729Z,23.15
2023-03-26T06:14:14.854Z,22.43
2023-03-26T06:15:14.162Z,21.73
2023-03-26T06:16:27.284Z,21.60
2023-03-26T06:17:15.810Z,22.19
2023-03-26T06:18:14.119Z,23.26
2023-03-26T06:19:14.497Z,24.57
2023-03-26T06:20:15.691Z,25.90
2023-03-26T06:21:14.067Z,27.27
2023-03-26T06:22:14.323Z,28.56
2023-03-26T06:23:14.624Z,29.81
2023-03-26T06:24:13.925Z,31.16
2023-03-26T06:25:14.270Z,32.63
2023-03-26T06:26:14.595Z,34.19
2023-03-26T06:27:13.862Z,35.81
2023-03-26T06:28:14.258Z,37.49
2023-03-26T06:29:14.504Z,39.06
2023-03-26T06:30:13.832Z,40.86
2023-03-26T06:31:14.287Z,42.79
2023-03-26T06:32:20.162Z,44.66
2023-03-26T06:33:14.761Z,46.31
2023-03-26T06:34:14.075Z,47.99
2023-03-26T06:35:14.389Z,50.21
2023-03-26T06:36:14.765Z,52.68
2023-03-26T06:37:13.972Z,55.37
2023-03-26T06:38:14.260Z,57.91
2023-03-26T06:39:14.591Z,59.95
2023-03-26T06:40:15.488Z,61.92
2023-03-26T06:41:14.204Z,63.76
2023-03-26T06:42:14.574Z,65.64
2023-03-26T06:43:13.799Z,67.18
2023-03-26T06:44:14.114Z,68.35
2023-03-26T06:45:15.388Z,69.44
2023-03-26T06:46:13.761Z,70.49
2023-03-26T06:47:14.018Z,71.77
2023-03-26T06:48:14.373Z,73.14
2023-03-26T06:49:14.581Z,74.09
2023-03-26T06:50:13.978Z,74.98
2023-03-26T06:51:15.204Z,75.84
2023-03-26T06:52:14.494Z,76.21
2023-03-26T06:53:14.806Z,75.38
2023-03-26T06:54:14.237Z,74.14
2023-03-26T06:55:13.442Z,74.63
2023-03-26T06:56:13.741Z,78.16
2023-03-26T06:57:15.023Z,84.06
2023-03-26T06:58:15.314Z,90.27
2023-03-26T06:59:13.622Z,95.30
2023-03-26T07:00:14.457Z,98.72
2023-03-26T07:01:14.208Z,100.33
2023-03-26T07:02:13.456Z,100.27
2023-03-26T07:03:13.776Z,99.56
2023-03-26T07:04:14.103Z,100.69
2023-03-26T07:05:13.374Z,103.33
2023-03-26T07:06:13.674Z,106.51
2023-03-26T07:07:13.911Z,109.82
2023-03-26T07:08:14.224Z,113.02
2023-03-26T07:09:16.595Z,115.97
2023-03-26T07:10:14.747Z,117.86
2023-03-26T07:11:14.098Z,118.09
2023-03-26T07:12:13.353Z,117.37
2023-03-26T07:13:14.604Z,115.92
2023-03-26T07:14:13.970Z,115.18
2023-03-26T07:15:14.214Z,115.04
2023-03-26T07:16:13.591Z,115.86
2023-03-26T07:17:16.950Z,116.80
2023-03-26T07:18:14.155Z,117.54
2023-03-26T07:19:13.385Z,118.34
2023-03-26T07:20:14.654Z,117.94
2023-03-26T07:21:13.996Z,115.83
2023-03-26T07:22:13.254Z,112.63
2023-03-26T07:23:14.484Z,109.01
2023-03-26T07:24:14.761Z,106.41
2023-03-26T07:25:13.978Z,104.89
2023-03-26T07:26:13.338Z,102.78
2023-03-26T07:27:13.744Z,98.86
2023-03-26T07:28:14.878Z,94.38
2023-03-26T07:29:13.194Z,90.82
2023-03-26T07:30:14.414Z,89.38
2023-03-26T07:31:14.705Z,87.98
2023-03-26T07:32:12.964Z,86.07
2023-03-26T07:33:13.528Z,82.95
2023-03-26T07:34:13.581Z,78.66
2023-03-26T07:35:13.884Z,73.34
2023-03-26T07:36:16.193Z,66.95
2023-03-26T07:37:13.660Z,64.25
2023-03-26T07:38:13.699Z,64.53
2023-03-26T07:39:12.998Z,63.37
2023-03-26T07:40:13.263Z,61.93
2023-03-26T07:41:13.560Z,61.82
2023-03-26T07:42:12.799Z,62.27
2023-03-26T07:43:13.224Z,63.01
2023-03-26T07:44:13.498Z,63.84
2023-03-26T07:45:14.681Z,65.29
2023-03-26T07:46:13.971Z,65.73
2023-03-26T07:47:13.273Z,65.63
2023-03-26T07:48:13.570Z,66.38
2023-03-26T07:49:12.871Z,68.38
2023-03-26T07:50:13.237Z,71.29
2023-03-26T07:51:13.461Z,71.30
2023-03-26T07:52:12.718Z,68.12
2023-03-26T07:53:13.056Z,67.52
2023-03-26T07:54:13.409Z,71.97
2023-03-26T07:55:13.736Z,75.33
2023-03-26T07:56:12.984Z,76.16
2023-03-26T07:57:14.257Z,75.41
2023-03-26T07:58:14.556Z,74.37
2023-03-26T07:59:13.823Z,73.50
2023-03-26T08:00:14.155Z,73.52
2023-03-26T08:01:13.535Z,73.85
2023-03-26T08:02:13.733Z,74.45
2023-03-26T08:03:14.220Z,75.62
2023-03-26T08:04:24.823Z,76.74
2023-03-26T08:05:13.771Z,77.17
2023-03-26T08:06:12.990Z,77.21
2023-03-26T08:07:13.372Z,77.14
2023-03-26T08:08:12.533Z,76.14
2023-03-26T08:09:12.872Z,74.42
2023-03-26T08:10:13.165Z,71.70
2023-03-26T08:11:12.746Z,67.86
2023-03-26T08:12:12.826Z,65.21
2023-03-26T08:13:13.075Z,64.77
2023-03-26T08:14:13.395Z,68.20
2023-03-26T08:15:13.631Z,72.91
2023-03-26T08:16:12.992Z,77.98
2023-03-26T08:17:13.269Z,80.46
2023-03-26T08:18:12.548Z,81.08
2023-03-26T08:19:12.870Z,81.34
2023-03-26T08:20:13.153Z,81.48
2023-03-26T08:21:13.368Z,81.77
2023-03-26T08:22:12.696Z,81.92
2023-03-26T08:23:13.039Z,81.64
2023-03-26T08:24:12.244Z,81.32
2023-03-26T08:25:12.557Z,80.75
2023-03-26T08:26:12.864Z,80.64
2023-03-26T08:27:13.155Z,81.22
2023-03-26T08:28:12.430Z,81.91
2023-03-26T08:29:12.773Z,80.95
2023-03-26T08:30:12.996Z,78.70
2023-03-26T08:31:13.330Z,77.18
2023-03-26T08:32:12.559Z,77.69
2023-03-26T08:33:12.903Z,80.70
2023-03-26T08:34:12.128Z,85.77
2023-03-26T08:35:13.816Z,90.89
2023-03-26T08:36:12.763Z,95.49
2023-03-26T08:37:12.158Z,100.94
2023-03-26T08:38:12.351Z,107.58
2023-03-26T08:39:12.672Z,115.55
2023-03-26T08:40:13.010Z,123.16
2023-03-26T08:41:12.894Z,128.61
2023-03-26T08:42:12.559Z,133.72
2023-03-26T08:43:12.895Z,138.17
2023-03-26T08:44:12.183Z,141.54
2023-03-26T08:45:12.525Z,145.97
2023-03-26T08:46:12.866Z,153.89
2023-03-26T08:47:12.143Z,159.08
2023-03-26T08:48:12.419Z,163.80
2023-03-26T08:49:13.706Z,167.35
2023-03-26T08:50:12.988Z,169.46
2023-03-26T08:51:13.297Z,169.79
2023-03-26T08:52:12.679Z,170.78
2023-03-26T08:53:12.878Z,172.68
2023-03-26T08:54:13.208Z,174.60
2023-03-26T08:55:12.553Z,175.97
2023-03-26T08:56:11.825Z,176.04
2023-03-26T08:57:12.173Z,175.82
2023-03-26T08:58:12.494Z,177.04
2023-03-26T08:59:12.724Z,174.42
2023-03-26T09:00:12.026Z,169.01
2023-03-26T09:01:12.305Z,165.89
2023-03-26T09:02:12.855Z,166.10
2023-03-26T09:03:12.003Z,164.98
2023-03-26T09:04:12.349Z,162.41
2023-03-26T09:05:12.579Z,161.44
2023-03-26T09:06:12.916Z,159.99
2023-03-26T09:07:13.143Z,155.31
2023-03-26T09:08:12.510Z,148.84
2023-03-26T09:09:19.308Z,138.78
2023-03-26T09:10:13.120Z,130.36
2023-03-26T09:11:12.387Z,122.04
2023-03-26T09:12:11.690Z,118.38
2023-03-26T09:13:12.000Z,122.52
2023-03-26T09:14:12.315Z,128.26
2023-03-26T09:15:11.566Z,131.57
2023-03-26T09:16:12.431Z,137.99
2023-03-26T09:17:12.221Z,142.50
2023-03-26T09:18:11.535Z,148.13
2023-03-26T09:19:11.816Z,158.96
2023-03-26T09:20:12.117Z,172.53
2023-03-26T09:21:12.489Z,179.59
2023-03-26T09:22:11.803Z,176.93
2023-03-26T09:23:14.597Z,173.13
2023-03-26T09:24:12.376Z,171.09
2023-03-26T09:25:11.673Z,175.65
2023-03-26T09:26:11.977Z,198.05
2023-03-26T09:27:12.352Z,215.61
2023-03-26T09:28:12.520Z,210.70
2023-03-26T09:29:11.902Z,211.64
2023-03-26T09:30:12.225Z,209.64
2023-03-26T09:31:11.524Z,209.83
2023-03-26T09:32:11.812Z,210.06
2023-03-26T09:33:12.149Z,215.47
2023-03-26T09:34:11.412Z,231.14
2023-03-26T09:35:13.263Z,253.26
2023-03-26T09:36:12.057Z,268.90
2023-03-26T09:37:11.325Z,293.33
2023-03-26T09:38:11.676Z,318.41
2023-03-26T09:39:12.060Z,332.97
2023-03-26T09:40:11.272Z,358.61
2023-03-26T09:41:11.298Z,408.42
2023-03-26T09:42:11.584Z,425.79
2023-03-26T09:43:11.914Z,443.79
2023-03-26T09:44:11.167Z,439.24
2023-03-26T09:45:11.610Z,433.27
2023-03-26T09:46:11.841Z,459.66
2023-03-26T09:47:12.088Z,489.94
2023-03-26T09:48:11.369Z,514.20
2023-03-26T09:49:12.648Z,525.76
2023-03-26T09:50:11.968Z,500.16
2023-03-26T09:51:11.228Z,452.89
2023-03-26T09:52:11.533Z,436.86
2023-03-26T09:53:12.796Z,419.91
2023-03-26T09:54:12.058Z,389.82
2023-03-26T09:55:12.351Z,364.74
2023-03-26T09:56:11.830Z,326.99
2023-03-26T09:57:12.931Z,320.49
2023-03-26T09:58:11.217Z,315.01
2023-03-26T09:59:12.446Z,320.13
2023-03-26T10:00:11.806Z,339.33
2023-03-26T10:01:11.247Z,388.55
2023-03-26T10:02:11.627Z,428.31
2023-03-26T10:03:11.681Z,445.14
2023-03-26T10:04:10.898Z,460.30
2023-03-26T10:05:11.213Z,481.79
2023-03-26T10:06:12.452Z,518.80
2023-03-26T10:07:11.788Z,536.77
2023-03-26T10:08:11.072Z,537.23
2023-03-26T10:09:11.337Z,531.32
2023-03-26T10:10:11.613Z,533.42
2023-03-26T10:11:10.885Z,551.49
2023-03-26T10:12:11.168Z,588.91
2023-03-26T10:13:14.769Z,616.24
2023-03-26T10:14:12.699Z,621.24
2023-03-26T10:15:11.942Z,602.45
2023-03-26T10:16:12.345Z,596.67
2023-03-26T10:17:12.516Z,555.58
2023-03-26T10:18:27.015Z,509.77
2023-03-26T10:19:12.207Z,494.29
2023-03-26T10:20:14.445Z,475.15
2023-03-26T10:21:12.656Z,457.60
2023-03-26T10:22:10.979Z,451.09
2023-03-26T10:23:11.214Z,454.49
2023-03-26T10:24:11.503Z,463.20
2023-03-26T10:25:10.808Z,474.96
2023-03-26T10:26:11.048Z,495.34
2023-03-26T10:27:11.311Z,522.72
2023-03-26T10:28:11.621Z,472.19
2023-03-26T10:29:10.856Z,412.50
2023-03-26T10:30:11.285Z,363.87
2023-03-26T10:31:11.451Z,322.00
2023-03-26T10:32:10.685Z,315.00
2023-03-26T10:33:11.964Z,312.63
2023-03-26T10:34:19.391Z,297.21
2023-03-26T10:35:11.544Z,273.26
2023-03-26T10:36:11.837Z,256.42
2023-03-26T10:37:12.103Z,247.94
2023-03-26T10:38:11.435Z,239.33
2023-03-26T10:39:10.713Z,242.60
2023-03-26T10:40:12.016Z,248.52
2023-03-26T10:41:11.327Z,260.53
2023-03-26T10:42:11.541Z,270.50
2023-03-26T10:43:12.456Z,285.83
2023-03-26T10:44:11.184Z,307.46
2023-03-26T10:45:10.457Z,316.91
2023-03-26T10:46:10.821Z,321.39
2023-03-26T10:47:11.067Z,319.91
2023-03-26T10:48:10.322Z,320.68
2023-03-26T10:49:10.623Z,323.99
2023-03-26T10:50:10.930Z,325.53
2023-03-26T10:51:11.229Z,322.55
2023-03-26T10:52:10.512Z,320.98
2023-03-26T10:53:10.814Z,326.82
2023-03-26T10:54:11.196Z,331.96
2023-03-26T10:55:10.386Z,332.01
2023-03-26T10:56:10.689Z,328.06
2023-03-26T10:57:11.444Z,323.99
2023-03-26T10:58:10.267Z,327.85
2023-03-26T10:59:11.532Z,330.77
2023-03-26T11:00:11.952Z,334.56
2023-03-26T11:01:11.180Z,344.26
2023-03-26T11:02:10.515Z,373.10
2023-03-26T11:03:10.816Z,384.24
2023-03-26T11:04:11.074Z,392.21
2023-03-26T11:05:10.392Z,400.74
2023-03-26T11:06:10.671Z,413.67
2023-03-26T11:07:11.048Z,427.81
2023-03-26T11:08:10.212Z,438.77
2023-03-26T11:09:10.491Z,456.90
2023-03-26T11:10:10.801Z,478.83
2023-03-26T11:11:10.088Z,500.25
2023-03-26T11:12:26.519Z,517.48
2023-03-26T11:13:11.683Z,522.81
2023-03-26T11:14:16.848Z,524.77
2023-03-26T11:15:11.229Z,525.49
2023-03-26T11:16:10.565Z,519.31
2023-03-26T11:17:14.563Z,508.96
2023-03-26T11:18:11.120Z,494.12
2023-03-26T11:19:10.779Z,476.75
2023-03-26T11:20:10.726Z,464.71
2023-03-26T11:21:19.147Z,467.33
2023-03-26T11:22:11.250Z,475.15
2023-03-26T11:23:10.549Z,487.23
2023-03-26T11:24:12.106Z,499.73
2023-03-26T11:25:10.101Z,510.34
2023-03-26T11:26:10.391Z,516.68
2023-03-26T11:27:14.945Z,519.24
2023-03-26T11:28:10.518Z,522.65
2023-03-26T11:29:32.835Z,519.43
2023-03-26T11:30:11.673Z,503.51
2023-03-26T11:31:09.912Z,485.15
2023-03-26T11:32:10.234Z,471.76
2023-03-26T11:33:10.411Z,458.83
2023-03-26T11:34:10.712Z,440.58
2023-03-26T11:35:10.953Z,421.32
2023-03-26T11:36:10.358Z,410.45
2023-03-26T11:37:11.546Z,404.53
2023-03-26T11:38:10.821Z,400.10
2023-03-26T11:39:11.075Z,395.16
2023-03-26T11:40:10.449Z,379.66
2023-03-26T11:41:10.630Z,344.78
2023-03-26T11:42:10.006Z,321.43
2023-03-26T11:43:11.216Z,303.29
2023-03-26T11:44:10.518Z,289.51
2023-03-26T11:45:10.772Z,278.36
2023-03-26T11:46:11.092Z,271.03
2023-03-26T11:47:10.976Z,261.61
2023-03-26T11:48:10.531Z,253.50
2023-03-26T11:49:10.797Z,245.10
2023-03-26T11:50:11.048Z,237.83
2023-03-26T11:51:11.314Z,240.91
2023-03-26T11:52:10.539Z,238.97
2023-03-26T11:53:09.905Z,223.18
2023-03-26T11:54:10.154Z,206.61
2023-03-26T11:55:11.350Z,189.83
2023-03-26T11:56:10.584Z,175.79
2023-03-26T11:57:09.980Z,193.54
2023-03-26T11:58:11.183Z,199.67
2023-03-26T11:59:09.467Z,201.98
2023-03-26T12:00:09.745Z,200.77
2023-03-26T12:01:10.076Z,194.30
2023-03-26T12:02:10.389Z,189.34
2023-03-26T12:03:09.650Z,182.80
2023-03-26T12:04:09.874Z,170.67
2023-03-26T12:05:10.078Z,155.86
2023-03-26T12:06:09.302Z,148.93
2023-03-26T12:07:09.580Z,142.49
2023-03-26T12:08:09.906Z,139.23
2023-03-26T12:09:10.165Z,139.23
2023-03-26T12:10:18.615Z,134.62
2023-03-26T12:11:10.671Z,127.63
2023-03-26T12:12:09.959Z,125.56
2023-03-26T12:13:10.454Z,127.44
2023-03-26T12:14:09.546Z,128.10
2023-03-26T12:15:09.827Z,130.91
2023-03-26T12:16:11.147Z,137.09
2023-03-26T12:17:09.405Z,146.27
2023-03-26T12:18:09.724Z,159.35
2023-03-26T12:19:09.998Z,157.97
2023-03-26T12:20:09.272Z,150.82
2023-03-26T12:21:09.619Z,151.86
2023-03-26T12:22:10.872Z,157.92
2023-03-26T12:23:09.202Z,162.04
2023-03-26T12:24:09.541Z,166.79
2023-03-26T12:25:10.468Z,170.31
2023-03-26T12:26:10.137Z,170.77
2023-03-26T12:27:09.412Z,180.22
2023-03-26T12:28:09.745Z,195.21
2023-03-26T12:29:09.001Z,215.64
2023-03-26T12:30:09.346Z,225.42
2023-03-26T12:31:09.811Z,234.02
2023-03-26T12:32:08.944Z,232.03
2023-03-26T12:33:09.305Z,236.66
2023-03-26T12:34:09.629Z,243.93
2023-03-26T12:35:08.919Z,249.69
2023-03-26T12:36:09.256Z,248.48
2023-03-26T12:37:14.238Z,248.91
2023-03-26T12:38:09.887Z,253.12
2023-03-26T12:39:42.985Z,257.06
2023-03-26T12:40:13.171Z,260.52
2023-03-26T12:44:44.672Z,259.81
2023-03-26T12:44:44.673Z,264.17
2023-03-26T12:44:48.637Z,278.19
2023-03-26T12:44:53.966Z,278.83
2023-03-26T12:45:10.053Z,283.96
2023-03-26T12:47:56.060Z,312.58
2023-03-26T12:47:56.293Z,309.90
2023-03-26T12:48:10.046Z,301.92
2023-03-26T12:49:09.394Z,302.38
2023-03-26T12:50:09.654Z,327.27
2023-03-26T12:51:09.770Z,362.33
2023-03-26T12:52:09.461Z,366.22
2023-03-26T12:53:09.506Z,362.33
2023-03-26T12:54:08.783Z,367.47
2023-03-26T12:55:12.073Z,380.86
2023-03-26T12:56:09.436Z,397.87